createdAt,value
2018-04-13T00:01:01.346Z,11.67
2018-04-13T00:03:31.245Z,11.63
2018-04-13T00:05:59.701Z,11.43
2018-04-13T00:08:28.080Z,10.37
2018-04-13T00:10:56.476Z,10.97
2018-04-13T00:13:24.858Z,11.37
2018-04-13T00:15:53.361Z,11.60
2018-04-13T00:18:21.725Z,10.67
2018-04-13T00:20:50.934Z,11.80
2018-04-13T00:23:19.363Z,11.87
2018-04-13T00:25:47.784Z,12.20
2018-04-13T00:28:16.157Z,11.73
2018-04-13T00:30:44.578Z,13.00
2018-04-13T00:33:13.022Z,11.30
2018-04-13T00:35:41.783Z,12.80
2018-04-13T00:38:10.242Z,12.73
2018-04-13T00:40:38.909Z,12.10
2018-04-13T00:43:07.490Z,13.47
2018-04-13T00:45:41.729Z,11.83
2018-04-13T00:48:10.391Z,12.73
2018-04-13T00:50:38.769Z,12.33
2018-04-13T00:53:19.233Z,11.70
2018-04-13T00:55:48.449Z,12.07
2018-04-13T00:58:16.864Z,11.97
2018-04-13T01:00:45.348Z,11.77
2018-04-13T01:03:13.730Z,12.30
2018-04-13T01:05:42.092Z,11.93
2018-04-13T01:08:10.655Z,11.33
2018-04-13T01:10:39.047Z,12.17
2018-04-13T01:13:07.482Z,12.27
2018-04-13T01:15:36.657Z,12.93
2018-04-13T01:18:05.063Z,13.17
2018-04-13T01:20:34.769Z,12.17
2018-04-13T01:23:04.069Z,12.93
2018-04-13T01:25:32.495Z,14.00
2018-04-13T01:28:00.956Z,12.70
2018-04-13T01:30:29.429Z,13.63
2018-04-13T01:32:57.816Z,13.17
2018-04-13T01:35:26.210Z,13.77
2018-04-13T01:37:55.034Z,14.00
2018-04-13T01:40:24.218Z,13.83
2018-04-13T01:42:52.843Z,14.47
2018-04-13T01:45:21.290Z,15.30
2018-04-13T01:47:49.800Z,17.67
2018-04-13T01:50:18.428Z,18.33
2018-04-13T01:52:46.883Z,19.20
2018-04-13T01:55:15.274Z,17.67
2018-04-13T01:57:43.827Z,18.10
2018-04-13T02:00:12.408Z,15.83
2018-04-13T02:02:41.730Z,18.30
2018-04-13T02:05:10.113Z,17.80
2018-04-13T02:07:38.524Z,18.67
2018-04-13T02:10:07.061Z,16.87
2018-04-13T02:12:35.470Z,16.97
2018-04-13T02:15:04.117Z,18.40
2018-04-13T02:17:32.719Z,17.30
2018-04-13T02:20:01.289Z,17.43
2018-04-13T02:22:29.961Z,17.53
2018-04-13T02:24:59.267Z,16.27
2018-04-13T02:27:27.718Z,17.50
2018-04-13T02:29:56.329Z,16.33
2018-04-13T02:32:24.742Z,16.90
2018-04-13T02:34:53.220Z,17.17
2018-04-13T02:37:21.650Z,17.47
2018-04-13T02:39:50.146Z,18.03
2018-04-13T02:42:19.378Z,18.77
2018-04-13T02:44:47.927Z,18.33
2018-04-13T02:47:17.121Z,16.60
2018-04-13T02:49:46.294Z,17.37
2018-04-13T02:52:15.620Z,15.77
2018-04-13T02:54:44.206Z,16.93
2018-04-13T02:57:12.793Z,18.73
2018-04-13T02:59:41.373Z,19.37
2018-04-13T03:02:09.758Z,18.17
2018-04-13T03:04:38.330Z,24.47
2018-04-13T03:07:07.734Z,18.60
2018-04-13T03:09:36.155Z,16.83
2018-04-13T03:12:04.521Z,18.83
2018-04-13T03:14:33.077Z,18.33
2018-04-13T03:17:01.657Z,18.03
2018-04-13T03:19:31.280Z,18.47
2018-04-13T03:21:59.850Z,17.73
2018-04-13T03:24:28.434Z,18.93
2018-04-13T03:26:56.872Z,20.30
2018-04-13T03:29:25.393Z,18.47
2018-04-13T03:31:53.975Z,19.40
2018-04-13T03:34:22.362Z,19.20
2018-04-13T03:36:50.938Z,18.47
2018-04-13T03:39:19.437Z,19.37
2018-04-13T03:41:48.002Z,18.80
2018-04-13T03:44:16.514Z,19.73
2018-04-13T03:46:44.926Z,19.60
2018-04-13T03:49:13.343Z,19.03
2018-04-13T03:51:42.513Z,18.33
2018-04-13T03:54:11.752Z,18.83
2018-04-13T03:56:40.231Z,20.03
2018-04-13T03:59:08.804Z,37.10
2018-04-13T04:01:37.382Z,25.10
2018-04-13T04:04:05.962Z,19.07
2018-04-13T04:06:35.263Z,19.30
2018-04-13T04:09:04.950Z,19.10
2018-04-13T04:11:33.557Z,18.53
2018-04-13T04:14:02.734Z,17.60
2018-04-13T04:16:32.015Z,17.33
2018-04-13T04:19:01.454Z,17.57
2018-04-13T04:21:42.533Z,17.70
2018-04-13T04:24:22.770Z,19.30
2018-04-13T04:26:51.381Z,18.30
2018-04-13T04:29:20.061Z,18.63
2018-04-13T04:31:48.645Z,19.13
2018-04-13T04:34:17.229Z,20.97
2018-04-13T04:36:46.177Z,20.23
2018-04-13T04:39:14.600Z,22.93
2018-04-13T04:41:43.114Z,19.80
2018-04-13T04:44:11.761Z,21.33
2018-04-13T04:46:40.910Z,18.00
2018-04-13T04:49:09.462Z,18.80
2018-04-13T04:51:37.943Z,19.70
2018-04-13T04:54:06.504Z,21.07
2018-04-13T04:56:35.091Z,21.27
2018-04-13T04:59:03.487Z,19.97
2018-04-13T05:01:31.942Z,20.03
2018-04-13T05:04:01.171Z,21.43
2018-04-13T05:06:29.732Z,21.50
2018-04-13T05:08:58.178Z,19.90
2018-04-13T05:11:26.798Z,20.53
2018-04-13T05:13:55.374Z,19.80
2018-04-13T05:16:24.680Z,20.13
2018-04-13T05:18:53.367Z,20.30
2018-04-13T05:21:21.759Z,19.17
2018-04-13T05:23:50.325Z,17.57
2018-04-13T05:26:19.035Z,18.67
2018-04-13T05:28:47.483Z,20.67
2018-04-13T05:31:16.792Z,18.23
2018-04-13T05:33:45.372Z,20.57
2018-04-13T05:36:14.675Z,20.40
2018-04-13T05:38:43.256Z,19.33
2018-04-13T05:41:12.970Z,19.70
2018-04-13T05:43:41.551Z,19.93
2018-04-13T05:46:10.851Z,20.93
2018-04-13T05:48:39.673Z,18.90
2018-04-13T05:51:08.139Z,19.20
2018-04-13T05:53:36.700Z,17.60
2018-04-13T05:56:05.140Z,18.13
2018-04-13T05:58:33.663Z,19.80
2018-04-13T06:01:02.249Z,20.13
2018-04-13T06:03:30.932Z,19.73
2018-04-13T06:06:03.758Z,22.20
2018-04-13T06:08:32.502Z,19.87
2018-04-13T06:11:01.085Z,19.83
2018-04-13T06:13:29.536Z,21.50
2018-04-13T06:15:58.931Z,22.43
2018-04-13T06:18:27.444Z,20.23
2018-04-13T06:20:56.650Z,19.97
2018-04-13T06:23:25.035Z,18.77
2018-04-13T06:28:23.682Z,17.20
2018-04-13T06:30:50.438Z,16.40
2018-04-13T06:33:17.382Z,16.23
2018-04-13T06:35:44.029Z,15.43
2018-04-13T06:38:10.863Z,15.43
2018-04-13T06:40:37.806Z,15.60
2018-04-13T06:43:04.518Z,16.37
2018-04-13T06:45:32.415Z,14.43
2018-04-13T06:47:59.256Z,15.30
2018-04-13T06:50:25.996Z,14.90
2018-04-13T06:52:52.689Z,13.67
2018-04-13T06:55:19.579Z,13.87
2018-04-13T06:57:46.524Z,13.63
2018-04-13T07:00:13.360Z,13.93
2018-04-13T07:02:40.310Z,13.87
2018-04-13T07:05:07.000Z,13.83
2018-04-13T07:07:33.786Z,15.37
2018-04-13T07:10:00.534Z,15.07
2018-04-13T07:12:27.266Z,14.50
2018-04-13T07:14:54.111Z,14.30
2018-04-13T07:17:21.056Z,14.73
2018-04-13T07:19:47.723Z,15.87
2018-04-13T07:22:14.639Z,17.93
2018-04-13T07:24:41.585Z,16.23
2018-04-13T07:27:08.426Z,16.47
2018-04-13T07:29:35.267Z,17.43
2018-04-13T07:32:02.216Z,20.73
2018-04-13T07:34:29.037Z,18.53
2018-04-13T07:36:55.898Z,19.53
2018-04-13T07:39:22.666Z,21.07
2018-04-13T07:41:49.493Z,20.57
2018-04-13T07:44:16.628Z,20.70
2018-04-13T07:46:43.573Z,22.03
2018-04-13T07:49:10.278Z,20.53
2018-04-13T07:51:38.251Z,20.73
2018-04-13T07:54:04.713Z,19.93
2018-04-13T07:56:31.451Z,20.73
2018-04-13T07:58:58.098Z,19.17
2018-04-13T08:01:24.949Z,20.07
2018-04-13T08:03:51.781Z,19.73
2018-04-13T08:06:18.620Z,19.43
2018-04-13T08:08:45.667Z,21.37
2018-04-13T08:11:12.294Z,21.07
2018-04-13T08:13:39.045Z,20.17
2018-04-13T08:16:05.883Z,20.47
2018-04-13T08:18:32.729Z,20.73
2018-04-13T08:20:59.673Z,22.30
2018-04-13T08:23:26.414Z,21.00
2018-04-13T08:25:53.253Z,19.47
2018-04-13T08:28:20.095Z,20.07
2018-04-13T08:30:47.043Z,20.30
2018-04-13T08:33:14.621Z,20.30
2018-04-13T08:35:41.476Z,20.80
2018-04-13T08:38:09.127Z,21.10
2018-04-13T08:40:35.845Z,20.43
2018-04-13T08:43:02.549Z,22.40
2018-04-13T08:45:30.143Z,21.47
2018-04-13T08:47:57.191Z,22.77
2018-04-13T08:50:23.936Z,22.77
2018-04-13T08:52:50.610Z,22.50
2018-04-13T08:55:17.381Z,22.87
2018-04-13T08:57:44.781Z,21.97
2018-04-13T09:00:11.711Z,24.13
2018-04-13T09:02:38.552Z,21.60
2018-04-13T09:05:05.242Z,22.80
2018-04-13T09:07:32.029Z,24.23
2018-04-13T09:09:58.772Z,24.07
2018-04-13T09:12:25.449Z,24.60
2018-04-13T09:14:52.147Z,23.63
2018-04-13T09:17:19.009Z,22.77
2018-04-13T09:19:45.666Z,23.20
2018-04-13T09:22:12.367Z,23.53
2018-04-13T09:24:39.212Z,23.87
2018-04-13T09:27:05.866Z,23.13
2018-04-13T09:29:32.687Z,24.50
2018-04-13T09:31:59.428Z,24.07
2018-04-13T09:34:26.095Z,23.53
2018-04-13T09:36:52.910Z,23.87
2018-04-13T09:39:19.647Z,23.20
2018-04-13T09:41:46.495Z,25.13
2018-04-13T09:44:13.540Z,25.00
2018-04-13T09:46:40.587Z,24.83
2018-04-13T09:49:07.426Z,23.93
2018-04-13T09:51:34.370Z,24.87
2018-04-13T09:54:01.217Z,24.63
2018-04-13T09:56:27.957Z,25.53
2018-04-13T09:58:54.902Z,23.77
2018-04-13T10:01:21.559Z,26.07
2018-04-13T10:03:49.506Z,27.30
2018-04-13T10:06:16.349Z,27.63
2018-04-13T10:08:43.190Z,26.77
2018-04-13T10:11:10.032Z,27.40
2018-04-13T10:13:36.774Z,30.47
2018-04-13T10:16:03.614Z,31.67
2018-04-13T10:18:30.274Z,31.90
2018-04-13T10:20:57.173Z,32.87
2018-04-13T10:23:24.547Z,32.67
2018-04-13T10:25:51.291Z,34.17
2018-04-13T10:28:18.135Z,34.33
2018-04-13T10:30:44.872Z,34.63
2018-04-13T10:33:11.821Z,35.70
2018-04-13T10:35:38.639Z,34.40
2018-04-13T10:38:06.222Z,34.77
2018-04-13T10:40:33.064Z,34.40
2018-04-13T10:42:59.906Z,35.90
2018-04-13T10:45:26.645Z,37.27
2018-04-13T10:47:53.391Z,38.67
2018-04-13T10:50:20.333Z,38.93
2018-04-13T10:52:46.979Z,40.33
2018-04-13T10:55:13.637Z,38.20
2018-04-13T10:57:40.447Z,37.47
2018-04-13T11:00:07.188Z,38.73
2018-04-13T11:02:34.032Z,38.50
2018-04-13T11:05:00.771Z,39.77
2018-04-13T11:07:27.417Z,41.53
2018-04-13T11:09:54.244Z,42.27
2018-04-13T11:12:20.889Z,43.03
2018-04-13T11:14:47.623Z,43.77
2018-04-13T11:17:14.981Z,45.30
2018-04-13T11:19:41.927Z,43.03
2018-04-13T11:22:08.570Z,41.67
2018-04-13T11:24:35.405Z,43.50
2018-04-13T11:27:02.350Z,42.53
2018-04-13T11:29:29.086Z,43.27
2018-04-13T11:31:55.735Z,41.60
2018-04-13T11:34:22.566Z,41.27
2018-04-13T11:36:49.412Z,43.50
2018-04-13T11:39:16.253Z,44.60
2018-04-13T11:41:42.994Z,41.67
2018-04-13T11:44:10.143Z,41.60
2018-04-13T11:46:37.087Z,40.77
2018-04-13T11:49:03.929Z,43.33
2018-04-13T11:51:30.772Z,42.97
2018-04-13T11:53:57.511Z,43.00
2018-04-13T11:56:24.172Z,42.67
2018-04-13T11:58:50.890Z,42.53
2018-04-13T12:01:18.754Z,43.90
2018-04-13T12:03:45.597Z,44.33
2018-04-13T12:06:12.338Z,43.20
2018-04-13T12:08:39.278Z,43.27
2018-04-13T12:11:05.938Z,45.17
2018-04-13T12:13:32.582Z,43.63
2018-04-13T12:15:59.290Z,42.90
2018-04-13T12:18:25.991Z,37.53
2018-04-13T12:20:52.749Z,36.10
2018-04-13T12:23:19.610Z,39.70
2018-04-13T12:25:46.381Z,42.37
2018-04-13T12:28:13.039Z,42.10
2018-04-13T12:30:39.795Z,45.47
2018-04-13T12:33:06.504Z,41.57
2018-04-13T12:35:33.188Z,42.23
2018-04-13T12:38:00.778Z,41.20
2018-04-13T12:40:27.930Z,36.87
2018-04-13T12:42:54.662Z,34.30
2018-04-13T12:45:21.614Z,35.30
2018-04-13T12:47:48.782Z,35.43
2018-04-13T12:50:15.432Z,35.83
2018-04-13T12:52:43.776Z,35.37
2018-04-13T12:55:10.825Z,36.40
2018-04-13T12:57:37.461Z,35.97
2018-04-13T13:00:04.166Z,35.23
2018-04-13T13:02:30.936Z,33.87
2018-04-13T13:04:58.194Z,32.03
2018-04-13T13:07:24.853Z,31.33
2018-04-13T13:09:51.672Z,32.50
2018-04-13T13:12:19.129Z,32.50
2018-04-13T13:14:45.806Z,31.73
2018-04-13T13:17:12.610Z,31.83
2018-04-13T13:19:39.556Z,32.87
2018-04-13T13:22:06.396Z,31.70
2018-04-13T13:24:33.340Z,32.10
2018-04-13T13:27:00.081Z,32.33
2018-04-13T13:29:26.924Z,32.33
2018-04-13T13:31:53.594Z,32.47
2018-04-13T13:34:20.509Z,34.77
2018-04-13T13:36:47.627Z,33.83
2018-04-13T13:39:15.003Z,30.60
2018-04-13T13:41:41.851Z,31.43
2018-04-13T13:44:08.896Z,29.40
2018-04-13T13:46:35.741Z,29.50
2018-04-13T13:49:02.458Z,29.73
2018-04-13T13:51:29.224Z,29.60
2018-04-13T13:53:56.166Z,28.23
2018-04-13T13:56:23.007Z,29.00
2018-04-13T13:58:49.637Z,29.40
2018-04-13T14:01:16.488Z,29.00
2018-04-13T14:03:43.435Z,30.47
2018-04-13T14:06:10.275Z,31.67
2018-04-13T14:08:37.117Z,32.73
2018-04-13T14:11:03.968Z,32.57
2018-04-13T14:13:30.801Z,33.50
2018-04-13T14:15:57.614Z,32.33
2018-04-13T14:18:25.202Z,30.87
2018-04-13T14:20:51.888Z,31.27
2018-04-13T14:23:18.688Z,31.00
2018-04-13T14:25:45.346Z,32.03
2018-04-13T14:28:12.163Z,31.07
2018-04-13T14:30:39.001Z,30.60
2018-04-13T14:33:05.742Z,29.90
2018-04-13T14:35:32.413Z,28.07
2018-04-13T14:37:59.224Z,30.50
2018-04-13T14:40:26.069Z,29.27
2018-04-13T14:42:52.801Z,31.03
2018-04-13T14:45:19.444Z,30.70
2018-04-13T14:47:46.175Z,30.20
2018-04-13T14:50:13.128Z,30.43
2018-04-13T14:52:40.073Z,29.53
2018-04-13T14:55:06.813Z,31.03
2018-04-13T14:57:33.549Z,31.70
2018-04-13T15:00:00.802Z,31.97
2018-04-13T15:02:27.647Z,32.40
2018-04-13T15:04:54.307Z,30.23
2018-04-13T15:07:21.026Z,31.60
2018-04-13T15:09:47.626Z,32.43
2018-04-13T15:12:15.124Z,29.87
2018-04-13T15:14:41.960Z,31.43
2018-04-13T15:17:08.659Z,30.47
2018-04-13T15:19:35.338Z,28.50
2018-04-13T15:22:02.181Z,27.10
2018-04-13T15:24:28.917Z,28.03
2018-04-13T15:26:55.573Z,25.60
2018-04-13T15:29:22.295Z,24.83
2018-04-13T15:31:49.141Z,23.97
2018-04-13T15:34:15.980Z,24.10
2018-04-13T15:36:42.659Z,24.00
2018-04-13T15:39:09.360Z,26.17
2018-04-13T15:41:35.948Z,24.40
2018-04-13T15:44:02.631Z,24.37
2018-04-13T15:46:29.245Z,26.37
2018-04-13T15:48:56.832Z,27.23
2018-04-13T15:51:23.572Z,25.90
2018-04-13T15:53:50.183Z,26.33
2018-04-13T15:56:17.871Z,27.23
2018-04-13T15:58:44.610Z,26.93
2018-04-13T16:01:11.234Z,24.13
2018-04-13T16:03:38.086Z,24.00
2018-04-13T16:06:04.831Z,23.50
2018-04-13T16:08:31.671Z,24.10
2018-04-13T16:10:58.413Z,20.73
2018-04-13T16:13:25.151Z,18.57
2018-04-13T16:15:52.298Z,18.13
2018-04-13T16:18:19.043Z,19.07
2018-04-13T16:20:45.777Z,18.80
2018-04-13T16:23:12.546Z,17.57
2018-04-13T16:25:39.261Z,19.33
2018-04-13T16:28:06.104Z,17.33
2018-04-13T16:30:32.948Z,17.97
2018-04-13T16:32:59.687Z,16.50
2018-04-13T16:35:26.733Z,15.53
2018-04-13T16:37:53.472Z,15.17
2018-04-13T16:40:20.213Z,14.07
2018-04-13T16:42:47.055Z,14.33
2018-04-13T16:45:13.898Z,15.10
2018-04-13T16:47:40.733Z,13.57
2018-04-13T16:50:07.516Z,13.57
2018-04-13T16:52:34.219Z,14.73
2018-04-13T16:55:01.164Z,15.57
2018-04-13T16:57:27.904Z,14.90
2018-04-13T16:59:54.485Z,12.90
2018-04-13T17:02:21.482Z,13.70
2018-04-13T17:04:48.226Z,14.30
2018-04-13T17:07:15.063Z,12.83
2018-04-13T17:09:41.909Z,12.50
2018-04-13T17:12:08.646Z,12.10
2018-04-13T17:14:35.696Z,13.37
2018-04-13T17:17:02.431Z,13.17
2018-04-13T17:19:29.059Z,11.73
2018-04-13T17:21:55.809Z,12.10
2018-04-13T17:24:22.553Z,11.10
2018-04-13T17:26:49.293Z,11.67
2018-04-13T17:29:16.147Z,12.47
2018-04-13T17:31:42.757Z,13.43
2018-04-13T17:34:09.512Z,12.53
2018-04-13T17:36:36.268Z,13.27
2018-04-13T17:39:03.090Z,13.50
2018-04-13T17:41:29.749Z,12.87
2018-04-13T17:43:57.145Z,14.30
2018-04-13T17:46:23.822Z,13.70
2018-04-13T17:48:50.515Z,13.33
2018-04-13T17:51:17.311Z,15.30
2018-04-13T17:53:44.042Z,14.40
2018-04-13T17:56:10.786Z,14.10
2018-04-13T17:58:37.746Z,15.03
2018-04-13T18:01:04.374Z,14.37
2018-04-13T18:03:31.108Z,14.07
2018-04-13T18:05:57.848Z,14.77
2018-04-13T18:08:24.437Z,15.07
2018-04-13T18:10:52.761Z,16.83
2018-04-13T18:13:19.911Z,16.53
2018-04-13T18:15:46.627Z,14.90
2018-04-13T18:18:13.387Z,15.43
2018-04-13T18:20:40.051Z,15.97
2018-04-13T18:23:07.586Z,14.73
2018-04-13T18:25:34.328Z,15.20
2018-04-13T18:28:01.272Z,13.83
2018-04-13T18:30:27.894Z,13.37
2018-04-13T18:32:54.752Z,14.20
2018-04-13T18:35:21.491Z,12.87
2018-04-13T18:37:48.234Z,11.73
2018-04-13T18:40:14.973Z,13.23
2018-04-13T18:42:41.602Z,12.30
2018-04-13T18:45:08.619Z,11.73
2018-04-13T18:47:35.498Z,11.77
2018-04-13T18:50:02.340Z,12.63
2018-04-13T18:52:29.594Z,12.80
2018-04-13T18:54:56.306Z,12.33
2018-04-13T18:57:23.074Z,12.43
2018-04-13T18:59:49.938Z,11.87
2018-04-13T19:02:16.858Z,11.83
2018-04-13T19:04:43.907Z,12.17
2018-04-13T19:07:10.765Z,11.47
2018-04-13T19:09:37.789Z,11.40
2018-04-13T19:12:04.536Z,12.43
2018-04-13T19:14:31.475Z,11.93
2018-04-13T19:16:58.219Z,13.00
2018-04-13T19:19:25.064Z,14.00
2018-04-13T19:21:52.014Z,16.07
2018-04-13T19:24:18.851Z,14.77
2018-04-13T19:26:45.693Z,15.47
2018-04-13T19:29:12.429Z,16.93
2018-04-13T19:31:46.136Z,15.87
2018-04-13T19:34:12.846Z,17.83
2018-04-13T19:36:39.509Z,17.93
2018-04-13T19:39:07.892Z,18.67
2018-04-13T19:41:34.493Z,18.50
2018-04-13T19:44:01.139Z,18.50
2018-04-13T19:46:27.905Z,20.57
2018-04-13T19:48:54.530Z,21.07
2018-04-13T19:51:21.242Z,21.17
2018-04-13T19:53:48.125Z,20.60
2018-04-13T19:56:14.865Z,22.57
2018-04-13T19:58:41.604Z,21.43
2018-04-13T20:01:08.345Z,23.37
2018-04-13T20:03:35.087Z,23.67
2018-04-13T20:06:01.926Z,23.37
2018-04-13T20:08:28.638Z,25.17
2018-04-13T20:10:55.407Z,24.07
2018-04-13T20:13:22.018Z,26.10
2018-04-13T20:15:48.780Z,26.30
2018-04-13T20:18:17.346Z,27.63
2018-04-13T20:20:44.017Z,27.63
2018-04-13T20:23:10.848Z,29.53
2018-04-13T20:25:37.582Z,32.50
2018-04-13T20:28:04.234Z,39.37
2018-04-13T20:30:31.473Z,38.30
2018-04-13T20:32:58.213Z,38.10
2018-04-13T20:35:24.793Z,37.17
2018-04-13T20:37:52.311Z,37.83
2018-04-13T20:40:19.154Z,35.63
2018-04-13T20:42:45.893Z,41.10
2018-04-13T20:45:12.679Z,42.17
2018-04-13T20:47:39.997Z,47.60
2018-04-13T20:50:06.649Z,44.23
2018-04-13T20:52:33.314Z,49.23
2018-04-13T20:55:00.105Z,49.33
2018-04-13T20:57:26.945Z,49.60
2018-04-13T20:59:53.788Z,46.80
2018-04-13T21:02:20.401Z,45.77
2018-04-13T21:04:47.060Z,46.77
2018-04-13T21:07:13.804Z,50.10
2018-04-13T21:09:40.543Z,51.33
2018-04-13T21:12:07.381Z,52.47
2018-04-13T21:14:34.126Z,54.70
2018-04-13T21:17:00.866Z,52.63
2018-04-13T21:19:27.810Z,54.03
2018-04-13T21:21:54.414Z,54.47
2018-04-13T21:24:21.469Z,57.53
2018-04-13T21:26:48.133Z,58.70
2018-04-13T21:29:14.975Z,59.17
2018-04-13T21:31:42.019Z,58.37
2018-04-13T21:34:08.734Z,61.20
2018-04-13T21:36:35.305Z,59.90
2018-04-13T21:39:02.447Z,61.50
2018-04-13T21:41:30.530Z,62.83
2018-04-13T21:43:57.362Z,59.90
2018-04-13T21:46:25.450Z,63.07
2018-04-13T21:48:52.274Z,61.77
2018-04-13T21:51:19.116Z,61.90
2018-04-13T21:53:45.954Z,60.03
2018-04-13T21:56:12.800Z,60.00
2018-04-13T21:58:39.537Z,60.83
2018-04-13T22:01:06.382Z,60.40
2018-04-13T22:03:33.225Z,60.37
2018-04-13T22:05:59.817Z,59.07
2018-04-13T22:08:26.601Z,57.83
2018-04-13T22:10:53.444Z,61.67
2018-04-13T22:13:29.298Z,61.37
2018-04-13T22:15:55.910Z,55.87
2018-04-13T22:18:23.080Z,54.17
2018-04-13T22:20:49.824Z,52.73
2018-04-13T22:23:16.562Z,50.77
2018-04-13T22:25:43.195Z,46.87
2018-04-13T22:28:09.798Z,43.97
2018-04-13T22:30:36.681Z,42.73
2018-04-13T22:33:03.421Z,41.07
2018-04-13T22:35:30.161Z,41.80
2018-04-13T22:37:56.902Z,39.50
2018-04-13T22:40:23.644Z,41.53
2018-04-13T22:42:50.382Z,40.20
2018-04-13T22:45:17.322Z,39.17
2018-04-13T22:47:44.067Z,40.17
2018-04-13T22:50:10.839Z,38.40
2018-04-13T22:52:37.519Z,37.60
2018-04-13T22:55:04.967Z,38.30
2018-04-13T22:57:33.037Z,37.90
2018-04-13T23:00:00.504Z,38.20
2018-04-13T23:02:27.180Z,37.63
2018-04-13T23:04:55.200Z,37.03
2018-04-13T23:07:22.902Z,36.23
2018-04-13T23:09:49.638Z,37.60
2018-04-13T23:12:16.588Z,37.50
2018-04-13T23:14:43.325Z,38.03
2018-04-13T23:17:10.170Z,37.13
2018-04-13T23:19:37.013Z,37.30
2018-04-13T23:22:03.746Z,38.53
2018-04-13T23:24:30.482Z,37.83
2018-04-13T23:26:57.331Z,37.93
2018-04-13T23:29:24.173Z,37.10
2018-04-13T23:31:50.841Z,37.93
2018-04-13T23:34:17.652Z,39.70
2018-04-13T23:36:44.322Z,38.70
2018-04-13T23:39:11.231Z,38.50
2018-04-13T23:41:38.179Z,40.23
2018-04-13T23:44:04.919Z,39.80
2018-04-13T23:46:32.069Z,40.93
2018-04-13T23:48:58.809Z,37.27
2018-04-13T23:51:25.550Z,34.97
2018-04-13T23:53:52.287Z,36.50
2018-04-13T23:56:19.233Z,35.03
2018-04-13T23:58:46.077Z,35.00
